sensor_id;sensor_type;location;lat;lon;timestamp;P1;durP1;ratioP1;P2;durP2;ratioP2
823;SDS011;373;49.342;8.146;2022-08-26T00:02:09;4.38;;;3.95;;
823;SDS011;373;49.342;8.146;2022-08-26T00:04:36;5.35;;;4.22;;
823;SDS011;373;49.342;8.146;2022-08-26T00:07:05;4.78;;;4.43;;
823;SDS011;373;49.342;8.146;2022-08-26T00:09:32;5.97;;;4.45;;
823;SDS011;373;49.342;8.146;2022-08-26T00:11:59;4.53;;;4.22;;
823;SDS011;373;49.342;8.146;2022-08-26T00:14:26;4.60;;;4.20;;
823;SDS011;373;49.342;8.146;2022-08-26T00:16:53;5.82;;;5.32;;
823;SDS011;373;49.342;8.146;2022-08-26T00:19:20;5.28;;;4.75;;
823;SDS011;373;49.342;8.146;2022-08-26T00:21:48;5.13;;;4.63;;
823;SDS011;373;49.342;8.146;2022-08-26T00:24:18;4.68;;;4.30;;
823;SDS011;373;49.342;8.146;2022-08-26T00:26:46;4.63;;;4.22;;
823;SDS011;373;49.342;8.146;2022-08-26T00:29:13;4.47;;;4.07;;
823;SDS011;373;49.342;8.146;2022-08-26T00:31:41;4.93;;;4.53;;
823;SDS011;373;49.342;8.146;2022-08-26T00:34:08;4.47;;;4.18;;
823;SDS011;373;49.342;8.146;2022-08-26T00:36:35;5.05;;;4.65;;
823;SDS011;373;49.342;8.146;2022-08-26T00:39:04;4.60;;;4.30;;
823;SDS011;373;49.342;8.146;2022-08-26T00:41:34;4.97;;;4.57;;
823;SDS011;373;49.342;8.146;2022-08-26T00:44:03;4.50;;;4.20;;
823;SDS011;373;49.342;8.146;2022-08-26T00:46:31;4.88;;;4.43;;
823;SDS011;373;49.342;8.146;2022-08-26T00:49:03;4.95;;;4.55;;
823;SDS011;373;49.342;8.146;2022-08-26T00:51:32;4.78;;;4.40;;
823;SDS011;373;49.342;8.146;2022-08-26T00:54:08;5.30;;;4.80;;
823;SDS011;373;49.342;8.146;2022-08-26T00:56:39;4.43;;;4.13;;
823;SDS011;373;49.342;8.146;2022-08-26T00:59:11;5.10;;;4.60;;
823;SDS011;373;49.342;8.146;2022-08-26T01:01:41;4.60;;;4.30;;
823;SDS011;373;49.342;8.146;2022-08-26T01:04:09;4.32;;;3.95;;
823;SDS011;373;49.342;8.146;2022-08-26T01:06:36;5.55;;;5.05;;
823;SDS011;373;49.342;8.146;2022-08-26T01:09:04;5.22;;;4.82;;
823;SDS011;373;49.342;8.146;2022-08-26T01:11:31;4.85;;;4.35;;
823;SDS011;373;49.342;8.146;2022-08-26T01:14:01;4.20;;;3.80;;
823;SDS011;373;49.342;8.146;2022-08-26T01:16:29;4.97;;;4.55;;
823;SDS011;373;49.342;8.146;2022-08-26T01:18:58;5.10;;;4.70;;
823;SDS011;373;49.342;8.146;2022-08-26T01:21:33;4.93;;;4.53;;
823;SDS011;373;49.342;8.146;2022-08-26T01:24:05;5.07;;;4.55;;
823;SDS011;373;49.342;8.146;2022-08-26T01:26:33;4.72;;;4.30;;
823;SDS011;373;49.342;8.146;2022-08-26T01:29:05;5.20;;;4.78;;
823;SDS011;373;49.342;8.146;2022-08-26T01:31:37;5.03;;;4.60;;
823;SDS011;373;49.342;8.146;2022-08-26T01:34:09;5.45;;;4.88;;
823;SDS011;373;49.342;8.146;2022-08-26T01:36:42;4.80;;;4.40;;
823;SDS011;373;49.342;8.146;2022-08-26T01:39:11;5.10;;;4.65;;
823;SDS011;373;49.342;8.146;2022-08-26T01:41:38;5.43;;;4.75;;
823;SDS011;373;49.342;8.146;2022-08-26T01:44:12;4.78;;;4.38;;
823;SDS011;373;49.342;8.146;2022-08-26T01:46:43;5.43;;;4.25;;
823;SDS011;373;49.342;8.146;2022-08-26T01:49:14;4.88;;;4.47;;
823;SDS011;373;49.342;8.146;2022-08-26T01:51:42;4.80;;;4.40;;
823;SDS011;373;49.342;8.146;2022-08-26T01:54:12;5.07;;;4.57;;
823;SDS011;373;49.342;8.146;2022-08-26T01:56:40;5.10;;;4.70;;
823;SDS011;373;49.342;8.146;2022-08-26T01:59:07;5.07;;;4.68;;
823;SDS011;373;49.342;8.146;2022-08-26T02:01:37;5.72;;;4.93;;
823;SDS011;373;49.342;8.146;2022-08-26T02:04:05;4.88;;;4.47;;
823;SDS011;373;49.342;8.146;2022-08-26T02:06:41;6.68;;;5.30;;
823;SDS011;373;49.342;8.146;2022-08-26T02:09:09;5.55;;;4.82;;
823;SDS011;373;49.342;8.146;2022-08-26T02:11:38;5.13;;;4.63;;
823;SDS011;373;49.342;8.146;2022-08-26T02:14:07;4.85;;;4.45;;
823;SDS011;373;49.342;8.146;2022-08-26T02:16:39;5.25;;;4.75;;
823;SDS011;373;49.342;8.146;2022-08-26T02:19:08;4.97;;;4.68;;
823;SDS011;373;49.342;8.146;2022-08-26T02:21:38;5.57;;;5.07;;
823;SDS011;373;49.342;8.146;2022-08-26T02:24:06;5.95;;;5.38;;
823;SDS011;373;49.342;8.146;2022-08-26T02:26:35;5.18;;;4.78;;
823;SDS011;373;49.342;8.146;2022-08-26T02:29:04;5.05;;;4.57;;
823;SDS011;373;49.342;8.146;2022-08-26T02:31:35;5.32;;;4.85;;
823;SDS011;373;49.342;8.146;2022-08-26T02:34:06;6.88;;;4.97;;
823;SDS011;373;49.342;8.146;2022-08-26T02:36:34;6.95;;;4.47;;
823;SDS011;373;49.342;8.146;2022-08-26T02:39:01;5.03;;;4.63;;
823;SDS011;373;49.342;8.146;2022-08-26T02:41:29;5.55;;;5.05;;
823;SDS011;373;49.342;8.146;2022-08-26T02:43:56;5.35;;;4.82;;
823;SDS011;373;49.342;8.146;2022-08-26T02:46:25;5.70;;;5.22;;
823;SDS011;373;49.342;8.146;2022-08-26T02:48:52;5.80;;;5.22;;
823;SDS011;373;49.342;8.146;2022-08-26T02:51:19;5.45;;;4.95;;
823;SDS011;373;49.342;8.146;2022-08-26T02:53:47;4.97;;;4.53;;
823;SDS011;373;49.342;8.146;2022-08-26T02:56:14;5.60;;;5.10;;
823;SDS011;373;49.342;8.146;2022-08-26T02:58:41;4.93;;;4.53;;
823;SDS011;373;49.342;8.146;2022-08-26T03:01:17;5.07;;;4.68;;
823;SDS011;373;49.342;8.146;2022-08-26T03:03:47;4.82;;;4.35;;
823;SDS011;373;49.342;8.146;2022-08-26T03:06:14;5.40;;;4.90;;
823;SDS011;373;49.342;8.146;2022-08-26T03:08:41;5.38;;;4.93;;
823;SDS011;373;49.342;8.146;2022-08-26T03:11:09;5.60;;;5.20;;
823;SDS011;373;49.342;8.146;2022-08-26T03:13:36;5.25;;;4.80;;
823;SDS011;373;49.342;8.146;2022-08-26T03:16:04;5.85;;;5.25;;
823;SDS011;373;49.342;8.146;2022-08-26T03:18:31;5.18;;;4.78;;
823;SDS011;373;49.342;8.146;2022-08-26T03:21:04;6.00;;;4.95;;
823;SDS011;373;49.342;8.146;2022-08-26T03:23:32;6.15;;;5.72;;
823;SDS011;373;49.342;8.146;2022-08-26T03:26:00;5.40;;;4.60;;
823;SDS011;373;49.342;8.146;2022-08-26T03:28:28;5.70;;;5.10;;
823;SDS011;373;49.342;8.146;2022-08-26T03:30:55;5.07;;;4.68;;
823;SDS011;373;49.342;8.146;2022-08-26T03:33:22;5.35;;;4.95;;
823;SDS011;373;49.342;8.146;2022-08-26T03:35:50;5.30;;;4.90;;
823;SDS011;373;49.342;8.146;2022-08-26T03:38:19;5.75;;;5.30;;
823;SDS011;373;49.342;8.146;2022-08-26T03:40:48;5.47;;;5.07;;
823;SDS011;373;49.342;8.146;2022-08-26T03:43:17;5.72;;;5.22;;
823;SDS011;373;49.342;8.146;2022-08-26T03:45:45;5.13;;;4.63;;
823;SDS011;373;49.342;8.146;2022-08-26T03:48:12;5.70;;;5.22;;
823;SDS011;373;49.342;8.146;2022-08-26T03:50:40;5.35;;;4.90;;
823;SDS011;373;49.342;8.146;2022-08-26T03:53:07;5.78;;;5.38;;
823;SDS011;373;49.342;8.146;2022-08-26T03:55:36;5.65;;;5.18;;
823;SDS011;373;49.342;8.146;2022-08-26T03:58:03;5.80;;;5.30;;
823;SDS011;373;49.342;8.146;2022-08-26T04:00:30;5.30;;;4.80;;
823;SDS011;373;49.342;8.146;2022-08-26T04:02:58;5.60;;;5.20;;
823;SDS011;373;49.342;8.146;2022-08-26T04:05:25;6.50;;;6.00;;
823;SDS011;373;49.342;8.146;2022-08-26T04:07:52;5.07;;;4.60;;
823;SDS011;373;49.342;8.146;2022-08-26T04:10:20;5.82;;;5.32;;
823;SDS011;373;49.342;8.146;2022-08-26T04:12:50;6.10;;;5.60;;
823;SDS011;373;49.342;8.146;2022-08-26T04:15:18;5.97;;;5.45;;
823;SDS011;373;49.342;8.146;2022-08-26T04:17:45;6.05;;;5.45;;
823;SDS011;373;49.342;8.146;2022-08-26T04:20:13;6.25;;;5.75;;
823;SDS011;373;49.342;8.146;2022-08-26T04:22:42;5.82;;;5.32;;
823;SDS011;373;49.342;8.146;2022-08-26T04:25:10;5.65;;;5.15;;
823;SDS011;373;49.342;8.146;2022-08-26T04:27:37;6.22;;;5.70;;
823;SDS011;373;49.342;8.146;2022-08-26T04:30:07;5.93;;;5.43;;
823;SDS011;373;49.342;8.146;2022-08-26T04:32:35;5.75;;;5.35;;
823;SDS011;373;49.342;8.146;2022-08-26T04:35:03;6.15;;;5.65;;
823;SDS011;373;49.342;8.146;2022-08-26T04:37:31;5.05;;;4.55;;
823;SDS011;373;49.342;8.146;2022-08-26T04:39:58;5.93;;;5.43;;
823;SDS011;373;49.342;8.146;2022-08-26T04:42:25;6.25;;;5.65;;
823;SDS011;373;49.342;8.146;2022-08-26T04:44:53;5.38;;;4.93;;
823;SDS011;373;49.342;8.146;2022-08-26T04:47:22;5.38;;;4.97;;
823;SDS011;373;49.342;8.146;2022-08-26T04:49:49;5.53;;;4.90;;
823;SDS011;373;49.342;8.146;2022-08-26T04:52:19;6.18;;;5.32;;
823;SDS011;373;49.342;8.146;2022-08-26T04:54:47;5.50;;;4.55;;
823;SDS011;373;49.342;8.146;2022-08-26T04:57:14;6.22;;;5.65;;
823;SDS011;373;49.342;8.146;2022-08-26T04:59:41;5.95;;;5.47;;
823;SDS011;373;49.342;8.146;2022-08-26T05:02:08;6.15;;;5.65;;
823;SDS011;373;49.342;8.146;2022-08-26T05:04:37;5.95;;;5.45;;
823;SDS011;373;49.342;8.146;2022-08-26T05:07:07;7.50;;;5.97;;
823;SDS011;373;49.342;8.146;2022-08-26T05:09:34;6.32;;;5.80;;
823;SDS011;373;49.342;8.146;2022-08-26T05:12:02;6.10;;;5.50;;
823;SDS011;373;49.342;8.146;2022-08-26T05:14:29;5.60;;;4.97;;
823;SDS011;373;49.342;8.146;2022-08-26T05:16:56;5.45;;;5.05;;
823;SDS011;373;49.342;8.146;2022-08-26T05:19:24;5.43;;;5.03;;
823;SDS011;373;49.342;8.146;2022-08-26T05:21:52;6.15;;;5.53;;
823;SDS011;373;49.342;8.146;2022-08-26T05:24:19;6.28;;;5.80;;
823;SDS011;373;49.342;8.146;2022-08-26T05:26:46;6.32;;;5.78;;
823;SDS011;373;49.342;8.146;2022-08-26T05:29:13;5.93;;;5.45;;
823;SDS011;373;49.342;8.146;2022-08-26T05:31:42;6.40;;;5.90;;
823;SDS011;373;49.342;8.146;2022-08-26T05:34:09;6.05;;;5.45;;
823;SDS011;373;49.342;8.146;2022-08-26T05:36:36;5.85;;;5.43;;
823;SDS011;373;49.342;8.146;2022-08-26T05:39:06;5.68;;;5.18;;
823;SDS011;373;49.342;8.146;2022-08-26T05:41:34;5.65;;;5.15;;
823;SDS011;373;49.342;8.146;2022-08-26T05:44:03;5.50;;;5.10;;
823;SDS011;373;49.342;8.146;2022-08-26T05:46:32;5.80;;;5.32;;
823;SDS011;373;49.342;8.146;2022-08-26T05:49:00;5.80;;;5.15;;
823;SDS011;373;49.342;8.146;2022-08-26T05:51:28;5.97;;;5.47;;
823;SDS011;373;49.342;8.146;2022-08-26T05:53:55;4.88;;;4.53;;
823;SDS011;373;49.342;8.146;2022-08-26T05:56:24;5.18;;;4.78;;
823;SDS011;373;49.342;8.146;2022-08-26T05:58:52;5.28;;;4.82;;
823;SDS011;373;49.342;8.146;2022-08-26T06:01:20;5.05;;;4.65;;
823;SDS011;373;49.342;8.146;2022-08-26T06:03:50;6.13;;;5.53;;
823;SDS011;373;49.342;8.146;2022-08-26T06:06:19;6.25;;;5.65;;
823;SDS011;373;49.342;8.146;2022-08-26T06:08:48;5.68;;;5.25;;
823;SDS011;373;49.342;8.146;2022-08-26T06:11:17;5.53;;;5.00;;
823;SDS011;373;49.342;8.146;2022-08-26T06:13:51;5.53;;;5.03;;
823;SDS011;373;49.342;8.146;2022-08-26T06:16:21;5.25;;;4.75;;
823;SDS011;373;49.342;8.146;2022-08-26T06:18:50;5.70;;;5.20;;
823;SDS011;373;49.342;8.146;2022-08-26T06:21:19;5.82;;;5.32;;
823;SDS011;373;49.342;8.146;2022-08-26T06:23:47;5.65;;;5.15;;
823;SDS011;373;49.342;8.146;2022-08-26T06:26:34;5.63;;;5.10;;
823;SDS011;373;49.342;8.146;2022-08-26T06:29:03;5.25;;;4.85;;
823;SDS011;373;49.342;8.146;2022-08-26T06:31:31;6.25;;;5.75;;
823;SDS011;373;49.342;8.146;2022-08-26T06:33:59;5.75;;;5.25;;
823;SDS011;373;49.342;8.146;2022-08-26T06:36:28;5.15;;;4.70;;
823;SDS011;373;49.342;8.146;2022-08-26T06:38:58;5.68;;;4.97;;
823;SDS011;373;49.342;8.146;2022-08-26T06:41:26;5.75;;;5.25;;
823;SDS011;373;49.342;8.146;2022-08-26T06:43:56;5.22;;;4.80;;
823;SDS011;373;49.342;8.146;2022-08-26T06:46:25;5.05;;;4.65;;
823;SDS011;373;49.342;8.146;2022-08-26T06:48:54;5.15;;;4.65;;
823;SDS011;373;49.342;8.146;2022-08-26T06:51:23;5.03;;;4.53;;
823;SDS011;373;49.342;8.146;2022-08-26T06:53:52;5.60;;;5.15;;
823;SDS011;373;49.342;8.146;2022-08-26T06:56:21;5.00;;;4.60;;
823;SDS011;373;49.342;8.146;2022-08-26T06:58:49;5.40;;;5.00;;
823;SDS011;373;49.342;8.146;2022-08-26T07:01:17;4.97;;;4.68;;
823;SDS011;373;49.342;8.146;2022-08-26T07:03:48;4.78;;;4.47;;
823;SDS011;373;49.342;8.146;2022-08-26T07:06:17;4.72;;;4.40;;
823;SDS011;373;49.342;8.146;2022-08-26T07:08:44;5.47;;;4.72;;
823;SDS011;373;49.342;8.146;2022-08-26T07:11:12;4.80;;;4.40;;
823;SDS011;373;49.342;8.146;2022-08-26T07:13:39;5.50;;;5.10;;
823;SDS011;373;49.342;8.146;2022-08-26T07:16:08;5.40;;;4.90;;
823;SDS011;373;49.342;8.146;2022-08-26T07:18:37;5.28;;;4.95;;
823;SDS011;373;49.342;8.146;2022-08-26T07:21:07;5.18;;;4.68;;
823;SDS011;373;49.342;8.146;2022-08-26T07:23:36;4.72;;;4.20;;
823;SDS011;373;49.342;8.146;2022-08-26T07:26:04;5.13;;;4.72;;
823;SDS011;373;49.342;8.146;2022-08-26T07:28:32;5.72;;;5.10;;
823;SDS011;373;49.342;8.146;2022-08-26T07:31:02;6.55;;;5.10;;
823;SDS011;373;49.342;8.146;2022-08-26T07:33:30;4.68;;;4.28;;
823;SDS011;373;49.342;8.146;2022-08-26T07:35:57;5.13;;;4.72;;
823;SDS011;373;49.342;8.146;2022-08-26T07:38:25;6.53;;;5.15;;
823;SDS011;373;49.342;8.146;2022-08-26T07:40:53;6.15;;;4.35;;
823;SDS011;373;49.342;8.146;2022-08-26T07:43:20;5.63;;;5.13;;
823;SDS011;373;49.342;8.146;2022-08-26T07:45:47;4.75;;;4.43;;
823;SDS011;373;49.342;8.146;2022-08-26T07:48:15;5.65;;;5.18;;
823;SDS011;373;49.342;8.146;2022-08-26T07:50:42;6.47;;;5.10;;
823;SDS011;373;49.342;8.146;2022-08-26T07:53:11;5.28;;;4.88;;
823;SDS011;373;49.342;8.146;2022-08-26T07:55:40;6.53;;;5.25;;
823;SDS011;373;49.342;8.146;2022-08-26T07:58:08;5.57;;;4.78;;
823;SDS011;373;49.342;8.146;2022-08-26T08:00:35;5.22;;;4.72;;
823;SDS011;373;49.342;8.146;2022-08-26T08:03:03;5.57;;;5.05;;
823;SDS011;373;49.342;8.146;2022-08-26T08:05:31;4.93;;;4.53;;
823;SDS011;373;49.342;8.146;2022-08-26T08:07:58;5.30;;;4.80;;
823;SDS011;373;49.342;8.146;2022-08-26T08:10:26;5.22;;;4.70;;
823;SDS011;373;49.342;8.146;2022-08-26T08:12:55;5.43;;;4.95;;
823;SDS011;373;49.342;8.146;2022-08-26T08:15:24;5.72;;;4.97;;
823;SDS011;373;49.342;8.146;2022-08-26T08:17:53;5.53;;;4.93;;
823;SDS011;373;49.342;8.146;2022-08-26T08:20:21;5.25;;;4.35;;
823;SDS011;373;49.342;8.146;2022-08-26T08:22:49;5.88;;;5.25;;
823;SDS011;373;49.342;8.146;2022-08-26T08:25:17;5.10;;;4.60;;
823;SDS011;373;49.342;8.146;2022-08-26T08:27:45;5.18;;;4.75;;
823;SDS011;373;49.342;8.146;2022-08-26T08:30:15;6.78;;;4.95;;
823;SDS011;373;49.342;8.146;2022-08-26T08:32:45;5.72;;;4.57;;
823;SDS011;373;49.342;8.146;2022-08-26T08:35:13;5.90;;;4.72;;
823;SDS011;373;49.342;8.146;2022-08-26T08:37:42;5.32;;;4.90;;
823;SDS011;373;49.342;8.146;2022-08-26T08:40:11;5.78;;;4.75;;
823;SDS011;373;49.342;8.146;2022-08-26T08:42:43;4.57;;;4.18;;
823;SDS011;373;49.342;8.146;2022-08-26T08:45:15;4.57;;;4.28;;
823;SDS011;373;49.342;8.146;2022-08-26T08:47:48;5.68;;;5.10;;
823;SDS011;373;49.342;8.146;2022-08-26T08:50:20;4.90;;;4.50;;
823;SDS011;373;49.342;8.146;2022-08-26T08:52:56;5.85;;;5.28;;
823;SDS011;373;49.342;8.146;2022-08-26T08:55:30;6.72;;;6.13;;
823;SDS011;373;49.342;8.146;2022-08-26T08:58:02;7.95;;;5.18;;
823;SDS011;373;49.342;8.146;2022-08-26T09:00:35;5.90;;;5.25;;
823;SDS011;373;49.342;8.146;2022-08-26T09:03:09;5.85;;;4.78;;
823;SDS011;373;49.342;8.146;2022-08-26T09:05:44;7.18;;;5.03;;
823;SDS011;373;49.342;8.146;2022-08-26T09:08:16;6.57;;;5.47;;
823;SDS011;373;49.342;8.146;2022-08-26T09:10:49;9.32;;;5.65;;
823;SDS011;373;49.342;8.146;2022-08-26T09:13:18;5.45;;;4.88;;
823;SDS011;373;49.342;8.146;2022-08-26T09:15:49;9.82;;;5.65;;
823;SDS011;373;49.342;8.146;2022-08-26T09:18:25;5.53;;;5.03;;
823;SDS011;373;49.342;8.146;2022-08-26T09:21:02;8.30;;;5.30;;
823;SDS011;373;49.342;8.146;2022-08-26T09:23:30;5.85;;;5.03;;
823;SDS011;373;49.342;8.146;2022-08-26T09:26:00;6.55;;;4.95;;
823;SDS011;373;49.342;8.146;2022-08-26T09:28:29;5.45;;;4.93;;
823;SDS011;373;49.342;8.146;2022-08-26T09:30:59;6.90;;;5.05;;
823;SDS011;373;49.342;8.146;2022-08-26T09:33:35;6.22;;;5.15;;
823;SDS011;373;49.342;8.146;2022-08-26T09:36:15;6.60;;;5.35;;
823;SDS011;373;49.342;8.146;2022-08-26T09:38:47;6.72;;;5.50;;
823;SDS011;373;49.342;8.146;2022-08-26T09:41:19;5.65;;;5.25;;
823;SDS011;373;49.342;8.146;2022-08-26T09:46:51;5.40;;;4.82;;
823;SDS011;373;49.342;8.146;2022-08-26T09:49:24;6.32;;;5.72;;
823;SDS011;373;49.342;8.146;2022-08-26T09:55:03;6.32;;;5.65;;
823;SDS011;373;49.342;8.146;2022-08-26T09:57:33;5.80;;;5.30;;
823;SDS011;373;49.342;8.146;2022-08-26T10:00:01;5.72;;;5.25;;
823;SDS011;373;49.342;8.146;2022-08-26T10:02:49;6.13;;;5.60;;
823;SDS011;373;49.342;8.146;2022-08-26T10:05:17;10.63;;;5.68;;
823;SDS011;373;49.342;8.146;2022-08-26T10:07:53;5.70;;;5.20;;
823;SDS011;373;49.342;8.146;2022-08-26T10:10:22;6.20;;;5.70;;
823;SDS011;373;49.342;8.146;2022-08-26T10:12:54;6.22;;;5.18;;
823;SDS011;373;49.342;8.146;2022-08-26T10:15:29;5.63;;;5.15;;
823;SDS011;373;49.342;8.146;2022-08-26T10:18:07;5.95;;;5.07;;
823;SDS011;373;49.342;8.146;2022-08-26T10:20:40;5.78;;;5.30;;
823;SDS011;373;49.342;8.146;2022-08-26T10:23:18;7.20;;;5.40;;
823;SDS011;373;49.342;8.146;2022-08-26T10:25:51;6.75;;;5.57;;
823;SDS011;373;49.342;8.146;2022-08-26T10:28:25;6.50;;;5.00;;
823;SDS011;373;49.342;8.146;2022-08-26T10:30:59;5.78;;;5.20;;
823;SDS011;373;49.342;8.146;2022-08-26T10:33:31;8.10;;;6.22;;
823;SDS011;373;49.342;8.146;2022-08-26T10:36:00;5.82;;;5.32;;
823;SDS011;373;49.342;8.146;2022-08-26T10:38:33;6.22;;;5.60;;
823;SDS011;373;49.342;8.146;2022-08-26T10:41:04;7.78;;;5.13;;
823;SDS011;373;49.342;8.146;2022-08-26T10:43:35;8.88;;;5.35;;
823;SDS011;373;49.342;8.146;2022-08-26T10:46:07;5.70;;;4.97;;
823;SDS011;373;49.342;8.146;2022-08-26T10:48:44;6.30;;;5.65;;
823;SDS011;373;49.342;8.146;2022-08-26T10:51:15;6.88;;;5.30;;
823;SDS011;373;49.342;8.146;2022-08-26T10:53:46;9.90;;;5.20;;
823;SDS011;373;49.342;8.146;2022-08-26T10:56:23;6.10;;;5.00;;
823;SDS011;373;49.342;8.146;2022-08-26T10:59:02;13.55;;;5.45;;
823;SDS011;373;49.342;8.146;2022-08-26T11:01:36;5.18;;;4.78;;
823;SDS011;373;49.342;8.146;2022-08-26T11:04:13;9.43;;;5.38;;
823;SDS011;373;49.342;8.146;2022-08-26T11:06:47;7.30;;;5.15;;
823;SDS011;373;49.342;8.146;2022-08-26T11:12:11;5.72;;;5.15;;
823;SDS011;373;49.342;8.146;2022-08-26T11:18:41;6.70;;;5.30;;
823;SDS011;373;49.342;8.146;2022-08-26T11:30:37;4.45;;;4.15;;
823;SDS011;373;49.342;8.146;2022-08-26T11:36:24;5.95;;;5.35;;
823;SDS011;373;49.342;8.146;2022-08-26T11:39:19;7.72;;;4.95;;
823;SDS011;373;49.342;8.146;2022-08-26T11:41:50;6.00;;;4.45;;
823;SDS011;373;49.342;8.146;2022-08-26T11:44:20;7.70;;;5.25;;
823;SDS011;373;49.342;8.146;2022-08-26T11:46:55;6.07;;;5.18;;
823;SDS011;373;49.342;8.146;2022-08-26T11:49:24;5.28;;;4.78;;
823;SDS011;373;49.342;8.146;2022-08-26T11:52:06;7.28;;;4.70;;
823;SDS011;373;49.342;8.146;2022-08-26T11:54:38;5.20;;;4.90;;
823;SDS011;373;49.342;8.146;2022-08-26T11:57:06;6.78;;;4.93;;
823;SDS011;373;49.342;8.146;2022-08-26T11:59:38;8.50;;;5.03;;
823;SDS011;373;49.342;8.146;2022-08-26T12:02:13;6.20;;;4.93;;
823;SDS011;373;49.342;8.146;2022-08-26T12:04:44;6.00;;;4.97;;
823;SDS011;373;49.342;8.146;2022-08-26T12:07:13;6.18;;;5.25;;
823;SDS011;373;49.342;8.146;2022-08-26T12:09:49;7.32;;;5.72;;
823;SDS011;373;49.342;8.146;2022-08-26T12:12:21;8.25;;;5.53;;
823;SDS011;373;49.342;8.146;2022-08-26T12:17:39;5.47;;;4.97;;
823;SDS011;373;49.342;8.146;2022-08-26T12:20:18;5.20;;;4.70;;
823;SDS011;373;49.342;8.146;2022-08-26T12:22:56;4.88;;;4.47;;
823;SDS011;373;49.342;8.146;2022-08-26T12:25:24;5.22;;;4.70;;
823;SDS011;373;49.342;8.146;2022-08-26T12:27:52;5.38;;;4.70;;
823;SDS011;373;49.342;8.146;2022-08-26T12:30:20;4.88;;;4.25;;
823;SDS011;373;49.342;8.146;2022-08-26T12:32:50;4.43;;;4.13;;
823;SDS011;373;49.342;8.146;2022-08-26T12:35:28;4.53;;;4.22;;
823;SDS011;373;49.342;8.146;2022-08-26T12:37:56;5.82;;;4.40;;
823;SDS011;373;49.342;8.146;2022-08-26T12:40:24;4.70;;;4.28;;
823;SDS011;373;49.342;8.146;2022-08-26T12:42:57;4.38;;;4.00;;
823;SDS011;373;49.342;8.146;2022-08-26T12:45:26;4.47;;;4.13;;
823;SDS011;373;49.342;8.146;2022-08-26T12:47:57;4.13;;;3.72;;
823;SDS011;373;49.342;8.146;2022-08-26T12:50:28;4.95;;;3.80;;
823;SDS011;373;49.342;8.146;2022-08-26T12:52:59;4.80;;;4.22;;
823;SDS011;373;49.342;8.146;2022-08-26T12:55:33;4.70;;;4.15;;
823;SDS011;373;49.342;8.146;2022-08-26T12:58:21;5.65;;;4.13;;
823;SDS011;373;49.342;8.146;2022-08-26T13:00:50;5.22;;;4.80;;
823;SDS011;373;49.342;8.146;2022-08-26T13:03:31;4.85;;;4.45;;
823;SDS011;373;49.342;8.146;2022-08-26T13:06:15;5.15;;;4.75;;
823;SDS011;373;49.342;8.146;2022-08-26T13:08:50;5.60;;;5.05;;
823;SDS011;373;49.342;8.146;2022-08-26T13:11:19;5.03;;;4.65;;
823;SDS011;373;49.342;8.146;2022-08-26T13:13:49;6.70;;;5.10;;
823;SDS011;373;49.342;8.146;2022-08-26T13:16:17;6.05;;;4.90;;
823;SDS011;373;49.342;8.146;2022-08-26T13:18:47;5.90;;;5.30;;
823;SDS011;373;49.342;8.146;2022-08-26T13:21:16;5.63;;;5.07;;
823;SDS011;373;49.342;8.146;2022-08-26T13:23:46;5.72;;;4.95;;
823;SDS011;373;49.342;8.146;2022-08-26T13:26:14;5.75;;;5.25;;
823;SDS011;373;49.342;8.146;2022-08-26T13:28:41;5.13;;;4.68;;
823;SDS011;373;49.342;8.146;2022-08-26T13:31:08;5.30;;;4.82;;
823;SDS011;373;49.342;8.146;2022-08-26T13:33:36;5.72;;;5.07;;
823;SDS011;373;49.342;8.146;2022-08-26T13:36:05;5.25;;;4.50;;
823;SDS011;373;49.342;8.146;2022-08-26T13:38:32;5.75;;;5.15;;
823;SDS011;373;49.342;8.146;2022-08-26T13:41:00;5.60;;;5.10;;
823;SDS011;373;49.342;8.146;2022-08-26T13:43:29;5.18;;;4.78;;
823;SDS011;373;49.342;8.146;2022-08-26T13:45:56;5.28;;;4.85;;
823;SDS011;373;49.342;8.146;2022-08-26T13:48:25;6.70;;;5.00;;
823;SDS011;373;49.342;8.146;2022-08-26T13:50:52;4.43;;;4.03;;
823;SDS011;373;49.342;8.146;2022-08-26T13:53:20;6.00;;;5.38;;
823;SDS011;373;49.342;8.146;2022-08-26T13:55:48;4.70;;;4.32;;
823;SDS011;373;49.342;8.146;2022-08-26T13:58:15;5.68;;;5.00;;
823;SDS011;373;49.342;8.146;2022-08-26T14:00:42;5.55;;;4.97;;
823;SDS011;373;49.342;8.146;2022-08-26T14:03:09;5.45;;;4.95;;
823;SDS011;373;49.342;8.146;2022-08-26T14:05:36;4.78;;;4.32;;
823;SDS011;373;49.342;8.146;2022-08-26T14:08:03;6.68;;;5.07;;
823;SDS011;373;49.342;8.146;2022-08-26T14:10:32;5.47;;;4.97;;
823;SDS011;373;49.342;8.146;2022-08-26T14:12:59;6.10;;;5.50;;
823;SDS011;373;49.342;8.146;2022-08-26T14:15:26;5.72;;;5.30;;
823;SDS011;373;49.342;8.146;2022-08-26T14:17:54;5.80;;;5.30;;
823;SDS011;373;49.342;8.146;2022-08-26T14:20:22;4.93;;;4.53;;
823;SDS011;373;49.342;8.146;2022-08-26T14:22:52;5.45;;;4.95;;
823;SDS011;373;49.342;8.146;2022-08-26T14:25:20;5.65;;;5.25;;
823;SDS011;373;49.342;8.146;2022-08-26T14:27:49;4.93;;;4.47;;
823;SDS011;373;49.342;8.146;2022-08-26T14:30:17;5.10;;;4.60;;
823;SDS011;373;49.342;8.146;2022-08-26T14:32:46;5.00;;;4.60;;
823;SDS011;373;49.342;8.146;2022-08-26T14:35:17;5.28;;;4.88;;
823;SDS011;373;49.342;8.146;2022-08-26T14:37:45;4.68;;;4.30;;
823;SDS011;373;49.342;8.146;2022-08-26T14:40:13;4.95;;;4.55;;
823;SDS011;373;49.342;8.146;2022-08-26T14:42:42;4.50;;;4.13;;
823;SDS011;373;49.342;8.146;2022-08-26T14:45:13;4.60;;;4.30;;
823;SDS011;373;49.342;8.146;2022-08-26T14:47:42;6.55;;;5.50;;
823;SDS011;373;49.342;8.146;2022-08-26T14:50:10;4.88;;;4.35;;
823;SDS011;373;49.342;8.146;2022-08-26T14:52:38;4.53;;;4.10;;
823;SDS011;373;49.342;8.146;2022-08-26T14:55:23;5.45;;;5.05;;
823;SDS011;373;49.342;8.146;2022-08-26T14:57:50;5.47;;;4.97;;
823;SDS011;373;49.342;8.146;2022-08-26T15:00:19;4.65;;;4.35;;
823;SDS011;373;49.342;8.146;2022-08-26T15:02:46;5.32;;;4.82;;
823;SDS011;373;49.342;8.146;2022-08-26T15:05:14;4.18;;;3.88;;
823;SDS011;373;49.342;8.146;2022-08-26T15:07:41;4.50;;;3.95;;
823;SDS011;373;49.342;8.146;2022-08-26T15:10:09;4.55;;;4.20;;
823;SDS011;373;49.342;8.146;2022-08-26T15:12:38;4.53;;;4.13;;
823;SDS011;373;49.342;8.146;2022-08-26T15:15:06;4.55;;;4.15;;
823;SDS011;373;49.342;8.146;2022-08-26T15:17:36;3.75;;;3.47;;
823;SDS011;373;49.342;8.146;2022-08-26T15:20:04;5.50;;;5.00;;
823;SDS011;373;49.342;8.146;2022-08-26T15:22:32;5.00;;;4.60;;
823;SDS011;373;49.342;8.146;2022-08-26T15:24:59;5.82;;;5.32;;
823;SDS011;373;49.342;8.146;2022-08-26T15:27:27;5.50;;;5.05;;
823;SDS011;373;49.342;8.146;2022-08-26T15:29:54;6.45;;;5.88;;
823;SDS011;373;49.342;8.146;2022-08-26T15:32:21;6.00;;;5.25;;
823;SDS011;373;49.342;8.146;2022-08-26T15:34:49;5.38;;;4.65;;
823;SDS011;373;49.342;8.146;2022-08-26T15:37:17;5.68;;;5.15;;
823;SDS011;373;49.342;8.146;2022-08-26T15:39:44;5.93;;;5.43;;
823;SDS011;373;49.342;8.146;2022-08-26T15:42:11;5.75;;;5.20;;
823;SDS011;373;49.342;8.146;2022-08-26T15:44:41;6.10;;;5.60;;
823;SDS011;373;49.342;8.146;2022-08-26T15:47:08;6.15;;;5.55;;
823;SDS011;373;49.342;8.146;2022-08-26T15:49:37;7.25;;;6.13;;
823;SDS011;373;49.342;8.146;2022-08-26T15:52:05;7.05;;;6.03;;
823;SDS011;373;49.342;8.146;2022-08-26T15:54:33;6.57;;;6.03;;
823;SDS011;373;49.342;8.146;2022-08-26T15:57:00;6.80;;;6.30;;
823;SDS011;373;49.342;8.146;2022-08-26T15:59:28;7.90;;;7.10;;
823;SDS011;373;49.342;8.146;2022-08-26T16:01:56;7.38;;;6.78;;
823;SDS011;373;49.342;8.146;2022-08-26T16:04:23;8.48;;;7.68;;
823;SDS011;373;49.342;8.146;2022-08-26T16:06:51;7.53;;;6.95;;
823;SDS011;373;49.342;8.146;2022-08-26T16:09:21;6.88;;;6.38;;
823;SDS011;373;49.342;8.146;2022-08-26T16:11:51;7.60;;;7.00;;
823;SDS011;373;49.342;8.146;2022-08-26T16:14:20;7.80;;;7.20;;
823;SDS011;373;49.342;8.146;2022-08-26T16:16:47;8.13;;;7.35;;
823;SDS011;373;49.342;8.146;2022-08-26T16:19:15;8.18;;;7.35;;
823;SDS011;373;49.342;8.146;2022-08-26T16:21:43;8.30;;;7.60;;
823;SDS011;373;49.342;8.146;2022-08-26T16:24:10;8.60;;;7.90;;
823;SDS011;373;49.342;8.146;2022-08-26T16:26:39;9.05;;;8.13;;
823;SDS011;373;49.342;8.146;2022-08-26T16:29:09;8.05;;;7.25;;